createdAt,value
2022-08-08T05:32:02.247Z,16.40
2022-08-08T05:34:40.854Z,17.00
2022-08-08T05:37:17.153Z,17.10
2022-08-08T05:39:52.780Z,17.90
2022-08-08T05:42:35.281Z,18.00
2022-08-08T05:45:10.154Z,18.50
2022-08-08T05:48:00.491Z,19.00
2022-08-08T05:50:33.637Z,19.90
2022-08-08T05:53:54.834Z,21.20
2022-08-08T05:56:09.746Z,22.40
2022-08-08T05:58:57.099Z,23.40
2022-08-08T06:01:56.317Z,24.30
2022-08-08T06:04:24.406Z,25.90
2022-08-08T06:06:56.762Z,26.60
2022-08-08T06:09:58.754Z,28.20
2022-08-08T06:12:30.462Z,28.90
2022-08-08T06:15:03.073Z,30.30
2022-08-08T06:18:18.710Z,30.60
2022-08-08T06:20:19.899Z,30.70
2022-08-08T06:22:49.377Z,30.60
2022-08-08T06:25:18.185Z,30.80
2022-08-08T06:27:56.264Z,30.70
2022-08-08T06:30:28.624Z,30.50
2022-08-08T06:33:00.805Z,31.20
2022-08-08T06:36:07.349Z,31.40
2022-08-08T06:38:28.813Z,31.50
2022-08-08T06:41:04.812Z,31.70
2022-08-08T06:43:37.278Z,32.10
2022-08-08T06:46:08.832Z,32.20
2022-08-08T06:48:38.266Z,32.80
2022-08-08T06:51:08.496Z,32.70
2022-08-08T06:53:38.833Z,32.60
2022-08-08T06:56:09.045Z,32.50
2022-08-08T06:58:40.024Z,32.80
2022-08-08T07:01:24.474Z,33.00
2022-08-08T07:04:38.732Z,33.30
2022-08-08T07:06:56.577Z,33.90
2022-08-08T07:09:45.184Z,33.70
2022-08-08T07:12:19.530Z,33.00
2022-08-08T07:14:58.223Z,31.80
2022-08-08T07:17:56.739Z,32.00
2022-08-08T07:20:27.980Z,32.50
2022-08-08T07:23:23.533Z,33.40
2022-08-08T07:25:54.232Z,32.80
2022-08-08T07:28:24.138Z,33.30
2022-08-08T07:30:59.724Z,32.90
2022-08-08T07:33:28.848Z,33.20
2022-08-08T07:36:08.266Z,33.70
2022-08-08T07:38:38.110Z,33.50
2022-08-08T07:41:08.878Z,33.70
2022-08-08T07:43:54.864Z,33.20
2022-08-08T07:46:29.096Z,33.10
2022-08-08T07:48:58.539Z,33.50
2022-08-08T07:51:45.265Z,33.60
2022-08-08T07:57:21.522Z,33.70
2022-08-08T08:05:26.271Z,33.80
2022-08-08T08:08:16.726Z,33.90
2022-08-08T08:10:51.061Z,33.90
2022-08-08T08:14:07.582Z,33.90
2022-08-08T08:16:38.532Z,34.70
2022-08-08T08:19:10.762Z,36.40
2022-08-08T08:21:52.826Z,36.90
2022-08-08T08:24:32.292Z,36.20
2022-08-08T08:27:02.916Z,36.70
2022-08-08T08:29:31.418Z,36.00
2022-08-08T08:32:05.374Z,35.70
2022-08-08T08:34:34.050Z,35.20
2022-08-08T08:37:03.472Z,35.40
2022-08-08T08:39:59.427Z,35.60
2022-08-08T08:42:31.720Z,36.60
2022-08-08T08:45:21.179Z,36.70
2022-08-08T08:47:54.864Z,37.20
2022-08-08T08:50:33.718Z,36.40
2022-08-08T08:53:54.722Z,37.50
2022-08-08T08:56:02.128Z,36.00
2022-08-08T08:58:42.872Z,35.60
2022-08-08T09:01:14.687Z,35.00
2022-08-08T09:03:47.217Z,34.90
2022-08-08T09:06:40.507Z,35.60
2022-08-08T09:09:35.499Z,35.40
2022-08-08T09:12:09.716Z,35.30
2022-08-08T09:14:42.604Z,35.20
2022-08-08T09:17:18.263Z,35.10
2022-08-08T09:22:00.703Z,36.20
2022-08-08T09:22:35.959Z,36.80
2022-08-08T09:25:04.719Z,36.70
2022-08-08T09:27:57.651Z,36.80
2022-08-08T09:30:20.141Z,36.70
2022-08-08T09:33:55.644Z,36.50
2022-08-08T09:35:49.983Z,36.20
2022-08-08T09:38:53.200Z,35.80
2022-08-08T09:42:13.808Z,35.50
2022-08-08T09:44:34.233Z,35.80
2022-08-08T09:48:02.675Z,35.70
2022-08-08T09:50:03.413Z,35.70
2022-08-08T09:52:56.700Z,35.70
2022-08-08T09:55:51.825Z,35.10
2022-08-08T09:58:28.063Z,34.50
2022-08-08T10:01:15.163Z,35.10
2022-08-08T10:04:02.272Z,35.30
2022-08-08T10:06:32.494Z,34.20
2022-08-08T10:09:00.260Z,33.40
2022-08-08T10:12:27.746Z,33.80
2022-08-08T10:14:30.957Z,33.00
2022-08-08T10:17:57.115Z,33.00
2022-08-08T10:20:00.365Z,33.50
2022-08-08T10:22:32.374Z,34.00
2022-08-08T10:25:04.873Z,34.50
2022-08-08T10:27:42.640Z,34.10
2022-08-08T10:30:16.394Z,34.20
2022-08-08T10:33:00.811Z,33.80
2022-08-08T10:36:08.997Z,33.60
2022-08-08T10:38:19.835Z,34.00
2022-08-08T10:40:52.078Z,33.20
2022-08-08T10:43:22.831Z,33.40
2022-08-08T10:45:55.770Z,32.80
2022-08-08T10:48:55.841Z,32.90
2022-08-08T10:51:26.225Z,32.80
2022-08-08T10:53:57.119Z,32.70
2022-08-08T10:56:27.585Z,32.30
2022-08-08T10:59:01.577Z,33.20
2022-08-08T11:01:33.587Z,33.60
2022-08-08T11:04:04.812Z,34.10
2022-08-08T11:06:34.889Z,34.20
2022-08-08T11:09:15.516Z,33.50
2022-08-08T11:12:06.235Z,32.90
2022-08-08T11:14:50.606Z,33.70
2022-08-08T11:18:00.719Z,34.00
2022-08-08T11:20:14.252Z,34.00
2022-08-08T11:22:52.645Z,33.50
2022-08-08T11:25:52.928Z,32.70
2022-08-08T11:28:13.030Z,32.70
2022-08-08T11:30:52.699Z,33.00
2022-08-08T11:33:51.445Z,32.80
2022-08-08T11:36:14.509Z,32.20
2022-08-08T11:38:54.829Z,31.50
2022-08-08T11:41:25.010Z,31.20
2022-08-08T11:43:57.928Z,31.50
2022-08-08T11:46:28.160Z,31.70
2022-08-08T11:48:58.792Z,31.60
2022-08-08T11:51:30.719Z,31.80
2022-08-08T11:54:09.750Z,31.00
2022-08-08T11:56:55.904Z,30.40
2022-08-08T12:00:00.587Z,29.80
2022-08-08T12:02:32.361Z,30.00
2022-08-08T12:05:02.284Z,30.30
2022-08-08T12:07:29.694Z,30.30
2022-08-08T12:10:11.527Z,29.80
2022-08-08T12:12:48.725Z,29.60
2022-08-08T12:15:41.976Z,29.40
2022-08-08T12:18:21.427Z,29.40
2022-08-08T12:20:56.604Z,29.60
2022-08-08T12:23:58.209Z,29.60
2022-08-08T12:26:49.937Z,29.30
2022-08-08T12:29:42.077Z,28.90
2022-08-08T12:32:13.317Z,29.40
2022-08-08T12:34:50.730Z,29.60
2022-08-08T12:37:40.985Z,29.70
2022-08-08T12:40:22.435Z,29.80
2022-08-08T12:42:52.224Z,29.90
2022-08-08T12:45:54.858Z,29.80
2022-08-08T12:48:37.874Z,29.90
2022-08-08T12:51:11.250Z,29.80
2022-08-08T12:54:01.423Z,29.60
2022-08-08T12:56:36.880Z,28.70
2022-08-08T12:59:27.350Z,28.70
2022-08-08T13:02:06.904Z,28.50
2022-08-08T13:04:34.654Z,28.60
2022-08-08T13:07:11.855Z,28.80
2022-08-08T13:10:05.158Z,28.80
2022-08-08T13:12:39.620Z,28.90
2022-08-08T13:15:12.500Z,28.80
2022-08-08T13:17:54.039Z,28.90
2022-08-08T13:20:28.708Z,28.90
2022-08-08T13:23:26.822Z,29.00
2022-08-08T13:25:44.305Z,28.80
2022-08-08T13:28:27.715Z,28.90
2022-08-08T13:30:56.925Z,29.20
2022-08-08T13:33:25.198Z,29.50
2022-08-08T13:35:55.812Z,29.50
2022-08-08T13:38:24.061Z,29.30
2022-08-08T13:40:56.084Z,29.10
2022-08-08T13:43:23.405Z,28.90
2022-08-08T13:48:25.986Z,29.00
2022-08-08T13:50:57.612Z,29.00
2022-08-08T13:53:53.232Z,29.00
2022-08-08T13:56:44.912Z,28.90
2022-08-08T13:59:43.662Z,28.80
2022-08-08T14:02:21.857Z,28.70
2022-08-08T14:05:09.585Z,28.70
2022-08-08T14:07:49.843Z,28.90
2022-08-08T14:10:33.092Z,28.90
2022-08-08T14:13:30.809Z,27.90
2022-08-08T14:16:16.009Z,28.80
2022-08-08T14:18:53.641Z,28.70
2022-08-08T14:21:23.648Z,28.80
2022-08-08T14:24:07.132Z,28.80
2022-08-08T14:26:45.835Z,28.80
2022-08-08T14:29:28.300Z,29.00
2022-08-08T14:32:09.885Z,29.00
2022-08-08T14:34:42.153Z,28.90
2022-08-08T14:37:12.842Z,28.60
2022-08-08T14:39:48.259Z,28.90
2022-08-08T14:42:24.992Z,28.80
2022-08-08T14:44:56.949Z,28.90
2022-08-08T14:47:25.479Z,29.10
2022-08-08T14:50:10.723Z,29.10
2022-08-08T14:52:48.654Z,29.20
2022-08-08T14:55:22.254Z,29.10
2022-08-08T14:58:02.580Z,29.10
2022-08-08T15:00:34.880Z,29.10
2022-08-08T15:03:15.646Z,29.00
2022-08-08T15:05:53.755Z,28.90
2022-08-08T15:08:34.986Z,29.20
2022-08-08T15:11:08.981Z,27.20
2022-08-08T15:14:01.743Z,28.90
2022-08-08T15:16:28.184Z,29.00
2022-08-08T15:18:56.027Z,28.80
2022-08-08T15:21:30.038Z,28.80
2022-08-08T15:23:58.584Z,28.80
2022-08-08T15:26:28.973Z,28.80
2022-08-08T15:28:57.397Z,28.70
2022-08-08T15:32:02.963Z,28.80
2022-08-08T15:34:28.869Z,28.70
2022-08-08T15:37:01.787Z,28.70
2022-08-08T15:39:37.459Z,28.70
2022-08-08T15:42:10.600Z,29.30
2022-08-08T15:44:42.261Z,28.90
2022-08-08T15:47:15.614Z,28.80
2022-08-08T15:49:48.398Z,28.80
2022-08-08T15:52:20.531Z,28.60
2022-08-08T15:54:51.606Z,28.50
2022-08-08T15:57:21.780Z,28.50
2022-08-08T16:00:06.225Z,28.50
